sensor_id;sensor_type;location;lat;lon;timestamp;pressure;altitude;pressure_sealevel;temperature;humidity
40994;BME280;26722;43.212;27.932;2023-03-04T00:01:40;55217.44;;;-146.72;79.74
40994;BME280;26722;43.212;27.932;2023-03-04T00:04:05;55217.44;;;-146.72;80.10
40994;BME280;26722;43.212;27.932;2023-03-04T00:06:31;55221.66;;;-146.72;80.27
40994;BME280;26722;43.212;27.932;2023-03-04T00:08:56;55211.09;;;-146.72;80.16
40994;BME280;26722;43.212;27.932;2023-03-04T00:11:22;55217.44;;;-146.72;80.12
40994;BME280;26722;43.212;27.932;2023-03-04T00:13:48;55215.31;;;-146.72;79.75
40994;BME280;26722;43.212;27.932;2023-03-04T00:16:13;55223.78;;;-146.72;79.14
40994;BME280;26722;43.212;27.932;2023-03-04T00:18:39;55206.88;;;-146.72;79.01
40994;BME280;26722;43.212;27.932;2023-03-04T00:21:04;55202.66;;;-146.72;79.26
40994;BME280;26722;43.212;27.932;2023-03-04T00:23:30;55217.44;;;-146.72;79.19
40994;BME280;26722;43.212;27.932;2023-03-04T00:25:55;55211.09;;;-146.72;79.41
40994;BME280;26722;43.212;27.932;2023-03-04T00:28:21;55225.88;;;-146.72;79.51
40994;BME280;26722;43.212;27.932;2023-03-04T00:30:46;55232.22;;;-146.72;79.71
40994;BME280;26722;43.212;27.932;2023-03-04T00:33:12;55221.66;;;-146.72;80.15
40994;BME280;26722;43.212;27.932;2023-03-04T00:35:37;55242.78;;;-146.72;80.42
40994;BME280;26722;43.212;27.932;2023-03-04T00:38:03;55225.88;;;-146.72;80.61
40994;BME280;26722;43.212;27.932;2023-03-04T00:40:28;55209.00;;;-146.72;81.04
40994;BME280;26722;43.212;27.932;2023-03-04T00:42:53;55211.09;;;-146.72;81.06
40994;BME280;26722;43.212;27.932;2023-03-04T00:45:19;55225.88;;;-146.72;81.11
40994;BME280;26722;43.212;27.932;2023-03-04T00:47:44;55200.53;;;-146.72;81.15
40994;BME280;26722;43.212;27.932;2023-03-04T00:50:10;55215.31;;;-146.72;81.43
40994;BME280;26722;43.212;27.932;2023-03-04T00:52:36;55230.09;;;-146.72;81.50
40994;BME280;26722;43.212;27.932;2023-03-04T00:55:01;55240.66;;;-146.72;81.85
40994;BME280;26722;43.212;27.932;2023-03-04T00:57:27;55225.88;;;-146.72;82.39
40994;BME280;26722;43.212;27.932;2023-03-04T00:59:52;55219.53;;;-146.72;82.57
40994;BME280;26722;43.212;27.932;2023-03-04T01:02:18;55228.00;;;-146.72;82.90
40994;BME280;26722;43.212;27.932;2023-03-04T01:04:43;55225.88;;;-146.72;83.16
40994;BME280;26722;43.212;27.932;2023-03-04T01:07:09;55238.53;;;-146.72;83.28
40994;BME280;26722;43.212;27.932;2023-03-04T01:09:34;55225.88;;;-146.72;83.21
40994;BME280;26722;43.212;27.932;2023-03-04T01:12:00;55213.22;;;-146.72;83.29
40994;BME280;26722;43.212;27.932;2023-03-04T01:14:25;55223.78;;;-146.72;83.08
40994;BME280;26722;43.212;27.932;2023-03-04T01:16:51;55242.78;;;-146.72;82.88
40994;BME280;26722;43.212;27.932;2023-03-04T01:19:17;55242.78;;;-146.72;82.77
40994;BME280;26722;43.212;27.932;2023-03-04T01:21:43;55211.09;;;-146.72;83.06
40994;BME280;26722;43.212;27.932;2023-03-04T01:24:08;55244.88;;;-146.72;82.49
40994;BME280;26722;43.212;27.932;2023-03-04T01:26:34;55221.66;;;-146.72;81.44
40994;BME280;26722;43.212;27.932;2023-03-04T01:28:59;55209.00;;;-146.72;81.06
40994;BME280;26722;43.212;27.932;2023-03-04T01:31:25;55219.53;;;-146.72;81.37
40994;BME280;26722;43.212;27.932;2023-03-04T01:33:51;55230.09;;;-146.72;81.50
40994;BME280;26722;43.212;27.932;2023-03-04T01:36:16;55234.31;;;-146.72;81.56
40994;BME280;26722;43.212;27.932;2023-03-04T01:38:42;55200.53;;;-146.72;81.38
40994;BME280;26722;43.212;27.932;2023-03-04T01:41:07;55206.88;;;-146.72;81.28
40994;BME280;26722;43.212;27.932;2023-03-04T01:43:34;55230.09;;;-146.72;81.06
40994;BME280;26722;43.212;27.932;2023-03-04T01:46:01;55209.00;;;-146.72;80.66
40994;BME280;26722;43.212;27.932;2023-03-04T01:48:30;55206.88;;;-146.72;80.64
40994;BME280;26722;43.212;27.932;2023-03-04T01:50:58;55221.66;;;-146.72;80.58
40994;BME280;26722;43.212;27.932;2023-03-04T01:53:28;55223.78;;;-146.72;80.68
40994;BME280;26722;43.212;27.932;2023-03-04T01:55:57;55217.44;;;-146.72;80.56
40994;BME280;26722;43.212;27.932;2023-03-04T01:58:28;55215.31;;;-146.72;80.21
40994;BME280;26722;43.212;27.932;2023-03-04T02:00:56;55223.78;;;-146.72;80.50
40994;BME280;26722;43.212;27.932;2023-03-04T02:03:22;55219.53;;;-146.72;80.65
40994;BME280;26722;43.212;27.932;2023-03-04T02:05:49;55196.31;;;-146.72;80.34
40994;BME280;26722;43.212;27.932;2023-03-04T02:08:18;55213.22;;;-146.72;79.95
40994;BME280;26722;43.212;27.932;2023-03-04T02:10:45;55202.66;;;-146.72;79.46
40994;BME280;26722;43.212;27.932;2023-03-04T02:13:11;55192.09;;;-146.72;79.23
40994;BME280;26722;43.212;27.932;2023-03-04T02:15:38;55185.75;;;-146.72;78.73
40994;BME280;26722;43.212;27.932;2023-03-04T02:18:14;55209.00;;;-146.72;78.33
40994;BME280;26722;43.212;27.932;2023-03-04T02:21:04;55198.44;;;-146.72;78.22
40994;BME280;26722;43.212;27.932;2023-03-04T02:26:19;55219.53;;;-146.72;77.44
40994;BME280;26722;43.212;27.932;2023-03-04T02:28:46;55225.88;;;-146.72;77.40
40994;BME280;26722;43.212;27.932;2023-03-04T02:31:32;55196.31;;;-146.72;77.84
40994;BME280;26722;43.212;27.932;2023-03-04T02:34:01;55215.31;;;-146.72;78.21
40994;BME280;26722;43.212;27.932;2023-03-04T02:36:27;55209.00;;;-146.72;78.08
40994;BME280;26722;43.212;27.932;2023-03-04T02:38:53;55223.78;;;-146.72;78.17
40994;BME280;26722;43.212;27.932;2023-03-04T02:41:23;55213.22;;;-146.72;78.23
40994;BME280;26722;43.212;27.932;2023-03-04T02:43:50;55230.09;;;-146.72;78.57
40994;BME280;26722;43.212;27.932;2023-03-04T02:46:16;55225.88;;;-146.72;78.78
40994;BME280;26722;43.212;27.932;2023-03-04T02:48:42;55230.09;;;-146.72;78.13
40994;BME280;26722;43.212;27.932;2023-03-04T02:51:07;55196.31;;;-146.72;77.96
40994;BME280;26722;43.212;27.932;2023-03-04T02:53:33;55213.22;;;-146.72;78.07
40994;BME280;26722;43.212;27.932;2023-03-04T02:55:58;55211.09;;;-146.72;78.10
40994;BME280;26722;43.212;27.932;2023-03-04T02:58:24;55225.88;;;-146.72;78.27
40994;BME280;26722;43.212;27.932;2023-03-04T03:00:49;55192.09;;;-146.72;77.23
40994;BME280;26722;43.212;27.932;2023-03-04T03:03:14;55196.31;;;-146.72;76.84
40994;BME280;26722;43.212;27.932;2023-03-04T03:05:40;55209.00;;;-146.72;76.48
40994;BME280;26722;43.212;27.932;2023-03-04T03:08:05;55225.88;;;-146.72;76.97
40994;BME280;26722;43.212;27.932;2023-03-04T03:10:31;55221.66;;;-146.72;77.56
40994;BME280;26722;43.212;27.932;2023-03-04T03:12:57;55196.31;;;-146.72;78.08
40994;BME280;26722;43.212;27.932;2023-03-04T03:15:22;55196.31;;;-146.72;78.05
40994;BME280;26722;43.212;27.932;2023-03-04T03:17:48;55198.44;;;-146.72;78.36
40994;BME280;26722;43.212;27.932;2023-03-04T03:20:14;55200.53;;;-146.72;78.87
40994;BME280;26722;43.212;27.932;2023-03-04T03:22:41;55213.22;;;-146.72;78.94
40994;BME280;26722;43.212;27.932;2023-03-04T03:25:07;55198.44;;;-146.72;79.41
40994;BME280;26722;43.212;27.932;2023-03-04T03:27:33;55200.53;;;-146.72;79.48
40994;BME280;26722;43.212;27.932;2023-03-04T03:29:59;55213.22;;;-146.72;79.35
40994;BME280;26722;43.212;27.932;2023-03-04T03:32:24;55204.75;;;-146.72;79.50
40994;BME280;26722;43.212;27.932;2023-03-04T03:34:50;55196.31;;;-146.72;79.48
40994;BME280;26722;43.212;27.932;2023-03-04T03:37:15;55206.88;;;-146.72;79.53
40994;BME280;26722;43.212;27.932;2023-03-04T03:39:40;55230.09;;;-146.72;79.51
40994;BME280;26722;43.212;27.932;2023-03-04T03:42:06;55211.09;;;-146.72;79.22
40994;BME280;26722;43.212;27.932;2023-03-04T03:44:32;55209.00;;;-146.72;79.22
40994;BME280;26722;43.212;27.932;2023-03-04T03:46:57;55211.09;;;-146.72;79.31
40994;BME280;26722;43.212;27.932;2023-03-04T03:49:23;55209.00;;;-146.72;78.99
40994;BME280;26722;43.212;27.932;2023-03-04T03:51:48;55192.09;;;-146.72;79.04
40994;BME280;26722;43.212;27.932;2023-03-04T03:54:14;55213.22;;;-146.72;78.64
40994;BME280;26722;43.212;27.932;2023-03-04T03:56:39;55206.88;;;-146.72;78.30
40994;BME280;26722;43.212;27.932;2023-03-04T03:59:05;55206.88;;;-146.72;78.32
40994;BME280;26722;43.212;27.932;2023-03-04T04:01:30;55202.66;;;-146.72;78.23
40994;BME280;26722;43.212;27.932;2023-03-04T04:03:58;55211.09;;;-146.72;78.53
40994;BME280;26722;43.212;27.932;2023-03-04T04:06:24;55215.31;;;-146.72;78.65
40994;BME280;26722;43.212;27.932;2023-03-04T04:08:49;55183.66;;;-146.72;78.57
40994;BME280;26722;43.212;27.932;2023-03-04T04:11:15;55187.88;;;-146.72;78.48
40994;BME280;26722;43.212;27.932;2023-03-04T04:13:40;55187.88;;;-146.72;77.89
40994;BME280;26722;43.212;27.932;2023-03-04T04:16:06;55211.09;;;-146.72;77.65
40994;BME280;26722;43.212;27.932;2023-03-04T04:18:33;55187.88;;;-146.72;77.88
40994;BME280;26722;43.212;27.932;2023-03-04T04:20:58;55187.88;;;-146.72;78.04
40994;BME280;26722;43.212;27.932;2023-03-04T04:23:24;55187.88;;;-146.72;77.51
40994;BME280;26722;43.212;27.932;2023-03-04T04:25:49;55200.53;;;-146.72;77.30
40994;BME280;26722;43.212;27.932;2023-03-04T04:28:14;55192.09;;;-146.72;77.31
40994;BME280;26722;43.212;27.932;2023-03-04T04:30:40;55206.88;;;-146.72;76.92
40994;BME280;26722;43.212;27.932;2023-03-04T04:33:05;55192.09;;;-146.72;77.13
40994;BME280;26722;43.212;27.932;2023-03-04T04:35:32;55213.22;;;-146.72;77.52
40994;BME280;26722;43.212;27.932;2023-03-04T04:37:59;55187.88;;;-146.72;77.68
40994;BME280;26722;43.212;27.932;2023-03-04T04:40:25;55204.75;;;-146.72;77.94
40994;BME280;26722;43.212;27.932;2023-03-04T04:42:50;55204.75;;;-146.72;77.47
40994;BME280;26722;43.212;27.932;2023-03-04T04:45:16;55204.75;;;-146.72;77.79
40994;BME280;26722;43.212;27.932;2023-03-04T04:47:41;55187.88;;;-146.72;78.10
40994;BME280;26722;43.212;27.932;2023-03-04T04:50:07;55213.22;;;-146.72;78.41
40994;BME280;26722;43.212;27.932;2023-03-04T04:52:33;55209.00;;;-146.72;78.93
40994;BME280;26722;43.212;27.932;2023-03-04T04:54:59;55204.75;;;-146.72;79.07
40994;BME280;26722;43.212;27.932;2023-03-04T04:57:24;55194.22;;;-146.72;79.40
40994;BME280;26722;43.212;27.932;2023-03-04T04:59:50;55230.09;;;-146.72;79.62
40994;BME280;26722;43.212;27.932;2023-03-04T05:02:15;55204.75;;;-146.72;79.99
40994;BME280;26722;43.212;27.932;2023-03-04T05:04:40;55211.09;;;-146.72;80.27
40994;BME280;26722;43.212;27.932;2023-03-04T05:07:06;55209.00;;;-146.72;80.01
40994;BME280;26722;43.212;27.932;2023-03-04T05:09:31;55206.88;;;-146.72;79.75
40994;BME280;26722;43.212;27.932;2023-03-04T05:11:57;55209.00;;;-146.72;79.97
40994;BME280;26722;43.212;27.932;2023-03-04T05:14:22;55204.75;;;-146.72;80.29
40994;BME280;26722;43.212;27.932;2023-03-04T05:16:48;55209.00;;;-146.72;80.37
40994;BME280;26722;43.212;27.932;2023-03-04T05:19:14;55217.44;;;-146.72;80.16
40994;BME280;26722;43.212;27.932;2023-03-04T05:21:39;55200.53;;;-146.72;80.04
40994;BME280;26722;43.212;27.932;2023-03-04T05:24:05;55204.75;;;-146.72;79.96
40994;BME280;26722;43.212;27.932;2023-03-04T05:26:30;55213.22;;;-146.72;79.79
40994;BME280;26722;43.212;27.932;2023-03-04T05:28:56;55200.53;;;-146.72;79.66
40994;BME280;26722;43.212;27.932;2023-03-04T05:31:22;55213.22;;;-146.72;79.29
40994;BME280;26722;43.212;27.932;2023-03-04T05:33:47;55202.66;;;-146.72;79.24
40994;BME280;26722;43.212;27.932;2023-03-04T05:36:12;55204.75;;;-146.72;78.43
40994;BME280;26722;43.212;27.932;2023-03-04T05:38:38;55183.66;;;-146.72;78.12
40994;BME280;26722;43.212;27.932;2023-03-04T05:41:06;55202.66;;;-146.72;78.12
40994;BME280;26722;43.212;27.932;2023-03-04T05:43:32;55209.00;;;-146.72;78.28
40994;BME280;26722;43.212;27.932;2023-03-04T05:45:59;55217.44;;;-146.72;78.68
40994;BME280;26722;43.212;27.932;2023-03-04T05:48:25;55211.09;;;-146.72;78.98
40994;BME280;26722;43.212;27.932;2023-03-04T05:50:55;55202.66;;;-146.72;79.40
40994;BME280;26722;43.212;27.932;2023-03-04T05:53:21;55211.09;;;-146.72;79.04
40994;BME280;26722;43.212;27.932;2023-03-04T05:55:46;55196.31;;;-146.72;78.80
40994;BME280;26722;43.212;27.932;2023-03-04T05:58:12;55198.44;;;-146.72;78.03
40994;BME280;26722;43.212;27.932;2023-03-04T06:00:38;55202.66;;;-146.72;78.56
40994;BME280;26722;43.212;27.932;2023-03-04T06:03:03;55190.00;;;-146.72;78.12
40994;BME280;26722;43.212;27.932;2023-03-04T06:05:28;55192.09;;;-146.72;78.19
40994;BME280;26722;43.212;27.932;2023-03-04T06:07:54;55206.88;;;-146.72;78.18
40994;BME280;26722;43.212;27.932;2023-03-04T06:10:19;55204.75;;;-146.72;78.15
40994;BME280;26722;43.212;27.932;2023-03-04T06:12:45;55204.75;;;-146.72;77.89
40994;BME280;26722;43.212;27.932;2023-03-04T06:15:11;55192.09;;;-146.72;78.03
40994;BME280;26722;43.212;27.932;2023-03-04T06:17:39;55194.22;;;-146.72;77.07
40994;BME280;26722;43.212;27.932;2023-03-04T06:20:05;55181.53;;;-146.72;76.40
40994;BME280;26722;43.212;27.932;2023-03-04T06:22:31;55198.44;;;-146.72;75.72
40994;BME280;26722;43.212;27.932;2023-03-04T06:24:57;55194.22;;;-146.72;75.88
40994;BME280;26722;43.212;27.932;2023-03-04T06:27:23;55200.53;;;-146.72;75.51
40994;BME280;26722;43.212;27.932;2023-03-04T06:29:48;55221.66;;;-146.72;76.17
40994;BME280;26722;43.212;27.932;2023-03-04T06:32:13;55202.66;;;-146.72;76.61
40994;BME280;26722;43.212;27.932;2023-03-04T06:34:39;55202.66;;;-146.72;77.02
40994;BME280;26722;43.212;27.932;2023-03-04T06:37:04;55211.09;;;-146.72;77.06
40994;BME280;26722;43.212;27.932;2023-03-04T06:39:30;55213.22;;;-146.72;77.28
40994;BME280;26722;43.212;27.932;2023-03-04T06:41:55;55228.00;;;-146.72;77.85
40994;BME280;26722;43.212;27.932;2023-03-04T06:44:21;55223.78;;;-146.72;77.88
40994;BME280;26722;43.212;27.932;2023-03-04T06:46:46;55209.00;;;-146.72;78.04
40994;BME280;26722;43.212;27.932;2023-03-04T06:49:12;55215.31;;;-146.72;78.41
40994;BME280;26722;43.212;27.932;2023-03-04T06:51:37;55200.53;;;-146.72;78.25
40994;BME280;26722;43.212;27.932;2023-03-04T06:54:02;55217.44;;;-146.72;77.54
40994;BME280;26722;43.212;27.932;2023-03-04T06:56:28;55204.75;;;-146.72;77.73
40994;BME280;26722;43.212;27.932;2023-03-04T06:58:53;55204.75;;;-146.72;76.80
40994;BME280;26722;43.212;27.932;2023-03-04T07:01:21;55202.66;;;-146.72;76.29
40994;BME280;26722;43.212;27.932;2023-03-04T07:03:48;55192.09;;;-146.72;76.33
40994;BME280;26722;43.212;27.932;2023-03-04T07:06:17;55179.44;;;-146.72;75.60
40994;BME280;26722;43.212;27.932;2023-03-04T07:08:43;55198.44;;;-146.72;74.42
40994;BME280;26722;43.212;27.932;2023-03-04T07:11:09;55196.31;;;-146.72;74.07
40994;BME280;26722;43.212;27.932;2023-03-04T07:13:35;55198.44;;;-146.72;74.10
40994;BME280;26722;43.212;27.932;2023-03-04T07:16:06;55183.66;;;-146.72;73.77
40994;BME280;26722;43.212;27.932;2023-03-04T07:18:32;55187.88;;;-146.72;73.24
40994;BME280;26722;43.212;27.932;2023-03-04T07:20:57;55192.09;;;-146.72;73.38
40994;BME280;26722;43.212;27.932;2023-03-04T07:23:23;55173.09;;;-146.72;73.03
40994;BME280;26722;43.212;27.932;2023-03-04T07:25:48;55170.97;;;-146.72;72.51
40994;BME280;26722;43.212;27.932;2023-03-04T07:28:14;55179.44;;;-146.72;72.42
40994;BME280;26722;43.212;27.932;2023-03-04T07:30:40;55192.09;;;-146.72;70.49
40994;BME280;26722;43.212;27.932;2023-03-04T07:33:05;55190.00;;;-146.72;69.79
40994;BME280;26722;43.212;27.932;2023-03-04T07:35:31;55183.66;;;-146.72;70.25
40994;BME280;26722;43.212;27.932;2023-03-04T07:37:56;55166.75;;;-146.72;70.37
40994;BME280;26722;43.212;27.932;2023-03-04T07:40:22;55164.66;;;-146.72;69.36
40994;BME280;26722;43.212;27.932;2023-03-04T07:42:49;55164.66;;;-146.72;68.57
40994;BME280;26722;43.212;27.932;2023-03-04T07:45:15;55166.75;;;-146.72;67.67
40994;BME280;26722;43.212;27.932;2023-03-04T07:47:40;55162.53;;;-146.72;66.58
40994;BME280;26722;43.212;27.932;2023-03-04T07:50:06;55183.66;;;-146.72;66.80
40994;BME280;26722;43.212;27.932;2023-03-04T07:52:32;55145.66;;;-146.72;66.76
40994;BME280;26722;43.212;27.932;2023-03-04T07:54:57;55162.53;;;-146.72;66.56
40994;BME280;26722;43.212;27.932;2023-03-04T07:57:23;55162.53;;;-146.72;65.95
40994;BME280;26722;43.212;27.932;2023-03-04T07:59:48;55158.31;;;-146.72;65.45
40994;BME280;26722;43.212;27.932;2023-03-04T08:02:14;55175.22;;;-146.72;64.99
40994;BME280;26722;43.212;27.932;2023-03-04T08:04:40;55166.75;;;-146.72;66.43
40994;BME280;26722;43.212;27.932;2023-03-04T08:07:05;55145.66;;;-146.72;66.91
40994;BME280;26722;43.212;27.932;2023-03-04T08:09:31;55149.88;;;-146.72;66.84
40994;BME280;26722;43.212;27.932;2023-03-04T08:11:56;55147.75;;;-146.72;66.23
40994;BME280;26722;43.212;27.932;2023-03-04T08:14:22;55135.09;;;-146.72;66.12
40994;BME280;26722;43.212;27.932;2023-03-04T08:16:47;55137.22;;;-146.72;65.75
40994;BME280;26722;43.212;27.932;2023-03-04T08:19:12;55151.97;;;-146.72;65.12
40994;BME280;26722;43.212;27.932;2023-03-04T08:21:38;55149.88;;;-146.72;64.58
40994;BME280;26722;43.212;27.932;2023-03-04T08:24:04;55128.75;;;-146.72;64.18
40994;BME280;26722;43.212;27.932;2023-03-04T08:26:38;55137.22;;;-146.72;64.20
40994;BME280;26722;43.212;27.932;2023-03-04T08:29:10;55135.09;;;-146.72;63.79
40994;BME280;26722;43.212;27.932;2023-03-04T08:31:36;55154.09;;;-146.72;63.76
40994;BME280;26722;43.212;27.932;2023-03-04T08:34:03;55137.22;;;-146.72;63.08
40994;BME280;26722;43.212;27.932;2023-03-04T08:36:28;55132.97;;;-146.72;62.21
40994;BME280;26722;43.212;27.932;2023-03-04T08:38:54;55158.31;;;-146.72;63.90
40994;BME280;26722;43.212;27.932;2023-03-04T08:41:19;55116.09;;;-146.72;64.21
40994;BME280;26722;43.212;27.932;2023-03-04T08:43:44;55120.31;;;-146.72;63.48
40994;BME280;26722;43.212;27.932;2023-03-04T08:46:10;55118.19;;;-146.72;62.82
40994;BME280;26722;43.212;27.932;2023-03-04T08:48:36;55111.88;;;-146.72;61.81
40994;BME280;26722;43.212;27.932;2023-03-04T08:51:09;55154.09;;;-146.72;61.96
40994;BME280;26722;43.212;27.932;2023-03-04T08:53:36;55130.88;;;-146.72;63.14
40994;BME280;26722;43.212;27.932;2023-03-04T08:56:02;55164.66;;;-146.72;63.29
40994;BME280;26722;43.212;27.932;2023-03-04T08:58:27;55120.31;;;-146.72;62.50
40994;BME280;26722;43.212;27.932;2023-03-04T09:00:52;55162.53;;;-146.72;61.73
40994;BME280;26722;43.212;27.932;2023-03-04T09:03:18;55141.44;;;-146.72;62.17
40994;BME280;26722;43.212;27.932;2023-03-04T09:05:45;55139.31;;;-146.72;61.97
40994;BME280;26722;43.212;27.932;2023-03-04T09:08:12;55128.75;;;-146.72;61.30
40994;BME280;26722;43.212;27.932;2023-03-04T09:10:37;55141.44;;;-146.72;60.55
40994;BME280;26722;43.212;27.932;2023-03-04T09:13:03;55120.31;;;-146.72;60.44
40994;BME280;26722;43.212;27.932;2023-03-04T09:15:30;55128.75;;;-146.72;58.63
40994;BME280;26722;43.212;27.932;2023-03-04T09:17:56;55118.19;;;-146.72;58.01
40994;BME280;26722;43.212;27.932;2023-03-04T09:20:21;55132.97;;;-146.72;57.02
40994;BME280;26722;43.212;27.932;2023-03-04T09:22:47;55101.31;;;-146.72;56.70
40994;BME280;26722;43.212;27.932;2023-03-04T09:25:13;55094.97;;;-146.72;54.46
40994;BME280;26722;43.212;27.932;2023-03-04T09:27:42;55109.75;;;-146.72;53.92
40994;BME280;26722;43.212;27.932;2023-03-04T09:30:08;55111.88;;;-146.72;54.81
40994;BME280;26722;43.212;27.932;2023-03-04T09:32:34;55120.31;;;-146.72;54.57
40994;BME280;26722;43.212;27.932;2023-03-04T09:34:59;55116.09;;;-146.72;54.93
40994;BME280;26722;43.212;27.932;2023-03-04T09:37:25;55116.09;;;-146.72;54.45
40994;BME280;26722;43.212;27.932;2023-03-04T09:39:50;55111.88;;;-146.72;54.43
40994;BME280;26722;43.212;27.932;2023-03-04T09:42:24;55111.88;;;-146.72;53.21
40994;BME280;26722;43.212;27.932;2023-03-04T09:44:52;55099.19;;;-146.72;52.35
40994;BME280;26722;43.212;27.932;2023-03-04T09:47:19;55109.75;;;-146.72;53.31
40994;BME280;26722;43.212;27.932;2023-03-04T09:49:56;55128.75;;;-146.72;54.30
40994;BME280;26722;43.212;27.932;2023-03-04T09:55:41;55120.31;;;-146.72;55.21
40994;BME280;26722;43.212;27.932;2023-03-04T10:00:44;55116.09;;;-146.72;55.41
40994;BME280;26722;43.212;27.932;2023-03-04T10:03:14;55128.75;;;-146.72;56.23
40994;BME280;26722;43.212;27.932;2023-03-04T10:06:06;55111.88;;;-146.72;57.19
40994;BME280;26722;43.212;27.932;2023-03-04T10:16:44;55111.88;;;-146.72;56.66
40994;BME280;26722;43.212;27.932;2023-03-04T10:21:42;55122.44;;;-146.72;57.13
40994;BME280;26722;43.212;27.932;2023-03-04T10:24:17;55132.97;;;-146.72;56.86
40994;BME280;26722;43.212;27.932;2023-03-04T10:26:47;55107.66;;;-146.72;56.91
40994;BME280;26722;43.212;27.932;2023-03-04T10:29:18;55111.88;;;-146.72;57.00
40994;BME280;26722;43.212;27.932;2023-03-04T10:31:45;55124.53;;;-146.72;56.08
40994;BME280;26722;43.212;27.932;2023-03-04T10:34:12;55130.88;;;-146.72;56.21
40994;BME280;26722;43.212;27.932;2023-03-04T10:36:58;55126.66;;;-146.72;56.16
40994;BME280;26722;43.212;27.932;2023-03-04T10:39:32;55111.88;;;-146.72;56.87
40994;BME280;26722;43.212;27.932;2023-03-04T10:42:05;55120.31;;;-146.72;55.63
40994;BME280;26722;43.212;27.932;2023-03-04T10:44:33;55116.09;;;-146.72;56.41
40994;BME280;26722;43.212;27.932;2023-03-04T10:46:59;55113.97;;;-146.72;56.20
40994;BME280;26722;43.212;27.932;2023-03-04T10:49:26;55113.97;;;-146.72;55.34
40994;BME280;26722;43.212;27.932;2023-03-04T10:52:00;55111.88;;;-146.72;54.95
40994;BME280;26722;43.212;27.932;2023-03-04T10:54:49;55111.88;;;-146.72;55.85
40994;BME280;26722;43.212;27.932;2023-03-04T10:57:18;55084.44;;;-146.72;56.36
40994;BME280;26722;43.212;27.932;2023-03-04T10:59:54;55099.19;;;-146.72;56.77
40994;BME280;26722;43.212;27.932;2023-03-04T11:02:33;55103.44;;;-146.72;56.61
40994;BME280;26722;43.212;27.932;2023-03-04T11:05:16;55099.19;;;-146.72;57.07
40994;BME280;26722;43.212;27.932;2023-03-04T11:07:50;55094.97;;;-146.72;57.20
40994;BME280;26722;43.212;27.932;2023-03-04T11:10:17;55107.66;;;-146.72;57.16
40994;BME280;26722;43.212;27.932;2023-03-04T11:12:49;55099.19;;;-146.72;57.56
40994;BME280;26722;43.212;27.932;2023-03-04T11:15:20;55101.31;;;-146.72;57.79
40994;BME280;26722;43.212;27.932;2023-03-04T11:17:57;55103.44;;;-146.72;58.53
40994;BME280;26722;43.212;27.932;2023-03-04T11:20:31;55107.66;;;-146.72;59.32
40994;BME280;26722;43.212;27.932;2023-03-04T11:23:02;55101.31;;;-146.72;59.64
40994;BME280;26722;43.212;27.932;2023-03-04T11:25:33;55124.53;;;-146.72;60.27
40994;BME280;26722;43.212;27.932;2023-03-04T11:28:10;55094.97;;;-146.72;60.44
40994;BME280;26722;43.212;27.932;2023-03-04T11:30:43;55090.75;;;-146.72;59.96
40994;BME280;26722;43.212;27.932;2023-03-04T11:33:37;55103.44;;;-146.72;59.08
40994;BME280;26722;43.212;27.932;2023-03-04T11:38:50;55090.75;;;-146.72;57.99
40994;BME280;26722;43.212;27.932;2023-03-04T11:41:22;55094.97;;;-146.72;57.78
40994;BME280;26722;43.212;27.932;2023-03-04T11:43:49;55088.66;;;-146.72;56.59
40994;BME280;26722;43.212;27.932;2023-03-04T11:49:14;55097.09;;;-146.72;55.87
40994;BME280;26722;43.212;27.932;2023-03-04T11:55:21;55086.53;;;-146.72;56.14
40994;BME280;26722;43.212;27.932;2023-03-04T12:00:51;55097.09;;;-146.72;56.62
40994;BME280;26722;43.212;27.932;2023-03-04T12:08:48;55094.97;;;-146.72;56.47
40994;BME280;26722;43.212;27.932;2023-03-04T12:11:37;55097.09;;;-146.72;57.19
40994;BME280;26722;43.212;27.932;2023-03-04T12:30:02;55107.66;;;-146.72;58.40
40994;BME280;26722;43.212;27.932;2023-03-04T12:32:33;55124.53;;;-146.72;58.73
40994;BME280;26722;43.212;27.932;2023-03-04T12:35:35;55120.31;;;-146.72;59.28
40994;BME280;26722;43.212;27.932;2023-03-04T12:44:12;55130.88;;;-146.72;61.59
40994;BME280;26722;43.212;27.932;2023-03-04T12:47:03;55141.44;;;-146.72;61.85
40994;BME280;26722;43.212;27.932;2023-03-04T12:50:06;55101.31;;;-146.72;61.59
40994;BME280;26722;43.212;27.932;2023-03-04T12:55:16;55137.22;;;-146.72;61.07
40994;BME280;26722;43.212;27.932;2023-03-04T12:57:43;55109.75;;;-146.72;61.01
40994;BME280;26722;43.212;27.932;2023-03-04T13:10:52;55139.31;;;-146.72;63.09
40994;BME280;26722;43.212;27.932;2023-03-04T13:16:04;55158.31;;;-146.72;63.86
40994;BME280;26722;43.212;27.932;2023-03-04T13:18:34;55137.22;;;-146.72;64.52
40994;BME280;26722;43.212;27.932;2023-03-04T13:21:20;55160.44;;;-146.72;65.02
40994;BME280;26722;43.212;27.932;2023-03-04T13:23:47;55128.75;;;-146.72;65.05
40994;BME280;26722;43.212;27.932;2023-03-04T13:26:16;55151.97;;;-146.72;65.11
40994;BME280;26722;43.212;27.932;2023-03-04T13:28:43;55149.88;;;-146.72;65.07
40994;BME280;26722;43.212;27.932;2023-03-04T13:36:02;55141.44;;;-146.72;64.93
40994;BME280;26722;43.212;27.932;2023-03-04T13:43:45;55132.97;;;-146.72;63.58
40994;BME280;26722;43.212;27.932;2023-03-04T13:59:31;55124.53;;;-146.72;62.63
40994;BME280;26722;43.212;27.932;2023-03-04T14:02:14;55118.19;;;-146.72;62.58
40994;BME280;26722;43.212;27.932;2023-03-04T14:07:29;55111.88;;;-146.72;62.76
40994;BME280;26722;43.212;27.932;2023-03-04T14:10:00;55107.66;;;-146.72;63.16
40994;BME280;26722;43.212;27.932;2023-03-04T14:12:31;55111.88;;;-146.72;63.27
40994;BME280;26722;43.212;27.932;2023-03-04T14:15:04;55139.31;;;-146.72;63.54